sensor_id;sensor_type;location;lat;lon;timestamp;temperature;humidity
45807;DHT22;31507;51.494;7.518;2022-08-03T00:00:07;19.30;99.90
45807;DHT22;31507;51.494;7.518;2022-08-03T00:02:33;19.30;99.90
45807;DHT22;31507;51.494;7.518;2022-08-03T00:04:59;19.40;99.90
45807;DHT22;31507;51.494;7.518;2022-08-03T00:07:24;19.40;99.90
45807;DHT22;31507;51.494;7.518;2022-08-03T00:09:50;19.40;99.90
45807;DHT22;31507;51.494;7.518;2022-08-03T00:12:16;19.50;99.90
45807;DHT22;31507;51.494;7.518;2022-08-03T00:14:41;19.50;99.90
45807;DHT22;31507;51.494;7.518;2022-08-03T00:17:07;19.50;99.90
45807;DHT22;31507;51.494;7.518;2022-08-03T00:19:33;19.60;99.90
45807;DHT22;31507;51.494;7.518;2022-08-03T00:21:58;19.60;99.90
45807;DHT22;31507;51.494;7.518;2022-08-03T00:24:24;19.60;99.90
45807;DHT22;31507;51.494;7.518;2022-08-03T00:26:50;19.60;99.90
45807;DHT22;31507;51.494;7.518;2022-08-03T00:29:16;19.50;99.90
45807;DHT22;31507;51.494;7.518;2022-08-03T00:31:42;19.50;99.90
45807;DHT22;31507;51.494;7.518;2022-08-03T00:34:07;19.50;99.90
45807;DHT22;31507;51.494;7.518;2022-08-03T00:36:33;19.40;99.90
45807;DHT22;31507;51.494;7.518;2022-08-03T00:38:59;19.30;99.90
45807;DHT22;31507;51.494;7.518;2022-08-03T00:41:25;19.20;99.90
45807;DHT22;31507;51.494;7.518;2022-08-03T00:43:51;19.20;99.90
45807;DHT22;31507;51.494;7.518;2022-08-03T00:46:18;19.10;99.90
45807;DHT22;31507;51.494;7.518;2022-08-03T00:48:44;19.00;99.90
45807;DHT22;31507;51.494;7.518;2022-08-03T00:51:10;19.00;99.90
45807;DHT22;31507;51.494;7.518;2022-08-03T00:53:37;19.00;99.90
45807;DHT22;31507;51.494;7.518;2022-08-03T00:56:02;19.00;99.90
45807;DHT22;31507;51.494;7.518;2022-08-03T00:58:28;18.90;99.90
45807;DHT22;31507;51.494;7.518;2022-08-03T01:00:55;18.90;99.90
45807;DHT22;31507;51.494;7.518;2022-08-03T01:03:20;18.90;99.90
45807;DHT22;31507;51.494;7.518;2022-08-03T01:06:33;18.80;99.90
45807;DHT22;31507;51.494;7.518;2022-08-03T01:09:18;18.80;99.90
45807;DHT22;31507;51.494;7.518;2022-08-03T01:11:54;18.70;99.90
45807;DHT22;31507;51.494;7.518;2022-08-03T01:14:37;18.70;99.90
45807;DHT22;31507;51.494;7.518;2022-08-03T01:20:16;18.80;99.90
45807;DHT22;31507;51.494;7.518;2022-08-03T01:29:05;18.90;99.90
45807;DHT22;31507;51.494;7.518;2022-08-03T01:31:44;18.80;99.90
45807;DHT22;31507;51.494;7.518;2022-08-03T01:34:13;18.80;99.90
45807;DHT22;31507;51.494;7.518;2022-08-03T01:36:50;18.80;99.90
45807;DHT22;31507;51.494;7.518;2022-08-03T01:39:20;18.70;99.90
45807;DHT22;31507;51.494;7.518;2022-08-03T01:41:50;18.70;99.90
45807;DHT22;31507;51.494;7.518;2022-08-03T01:44:19;18.60;99.90
45807;DHT22;31507;51.494;7.518;2022-08-03T01:46:47;18.50;99.90
45807;DHT22;31507;51.494;7.518;2022-08-03T01:49:14;18.50;99.90
45807;DHT22;31507;51.494;7.518;2022-08-03T01:51:44;18.50;99.90
45807;DHT22;31507;51.494;7.518;2022-08-03T01:54:11;18.50;99.90
45807;DHT22;31507;51.494;7.518;2022-08-03T01:56:39;18.50;99.90
45807;DHT22;31507;51.494;7.518;2022-08-03T01:59:08;18.40;99.90
45807;DHT22;31507;51.494;7.518;2022-08-03T02:01:35;18.50;99.90
45807;DHT22;31507;51.494;7.518;2022-08-03T02:04:04;18.50;99.90
45807;DHT22;31507;51.494;7.518;2022-08-03T02:06:32;18.60;99.90
45807;DHT22;31507;51.494;7.518;2022-08-03T02:08:59;18.60;99.90
45807;DHT22;31507;51.494;7.518;2022-08-03T02:11:27;18.70;99.90
45807;DHT22;31507;51.494;7.518;2022-08-03T02:13:57;18.70;99.90
45807;DHT22;31507;51.494;7.518;2022-08-03T02:16:23;18.70;99.90
45807;DHT22;31507;51.494;7.518;2022-08-03T02:18:51;18.70;99.90
45807;DHT22;31507;51.494;7.518;2022-08-03T02:21:19;18.60;99.90
45807;DHT22;31507;51.494;7.518;2022-08-03T02:23:46;18.50;99.90
45807;DHT22;31507;51.494;7.518;2022-08-03T02:26:14;18.50;99.90
45807;DHT22;31507;51.494;7.518;2022-08-03T02:28:46;18.50;99.90
45807;DHT22;31507;51.494;7.518;2022-08-03T02:31:17;18.50;99.90
45807;DHT22;31507;51.494;7.518;2022-08-03T02:33:49;18.40;99.90
45807;DHT22;31507;51.494;7.518;2022-08-03T02:36:21;18.40;99.90
45807;DHT22;31507;51.494;7.518;2022-08-03T02:38:52;18.20;99.90
45807;DHT22;31507;51.494;7.518;2022-08-03T02:41:23;18.20;99.90
45807;DHT22;31507;51.494;7.518;2022-08-03T02:43:53;18.10;99.90
45807;DHT22;31507;51.494;7.518;2022-08-03T02:46:24;18.00;99.90
45807;DHT22;31507;51.494;7.518;2022-08-03T02:48:51;18.00;99.90
45807;DHT22;31507;51.494;7.518;2022-08-03T02:51:18;17.90;99.90
45807;DHT22;31507;51.494;7.518;2022-08-03T02:53:46;17.90;99.90
45807;DHT22;31507;51.494;7.518;2022-08-03T02:56:13;17.90;99.90
45807;DHT22;31507;51.494;7.518;2022-08-03T02:58:42;17.80;99.90
45807;DHT22;31507;51.494;7.518;2022-08-03T03:01:08;17.80;99.90
45807;DHT22;31507;51.494;7.518;2022-08-03T03:03:37;17.80;99.90
45807;DHT22;31507;51.494;7.518;2022-08-03T03:06:03;17.70;99.90
45807;DHT22;31507;51.494;7.518;2022-08-03T03:08:30;17.70;99.90
45807;DHT22;31507;51.494;7.518;2022-08-03T03:10:59;17.60;99.90
45807;DHT22;31507;51.494;7.518;2022-08-03T03:13:27;17.60;99.90
45807;DHT22;31507;51.494;7.518;2022-08-03T03:15:55;17.60;99.90
45807;DHT22;31507;51.494;7.518;2022-08-03T03:18:24;17.60;99.90
45807;DHT22;31507;51.494;7.518;2022-08-03T03:20:51;17.60;99.90
45807;DHT22;31507;51.494;7.518;2022-08-03T03:23:20;17.60;99.90
45807;DHT22;31507;51.494;7.518;2022-08-03T03:25:46;17.50;99.90
45807;DHT22;31507;51.494;7.518;2022-08-03T03:28:13;17.50;99.90
45807;DHT22;31507;51.494;7.518;2022-08-03T03:30:40;17.60;99.90
45807;DHT22;31507;51.494;7.518;2022-08-03T03:33:11;17.60;99.90
45807;DHT22;31507;51.494;7.518;2022-08-03T03:35:40;17.60;99.90
45807;DHT22;31507;51.494;7.518;2022-08-03T03:38:07;17.70;99.90
45807;DHT22;31507;51.494;7.518;2022-08-03T03:40:37;17.80;99.90
45807;DHT22;31507;51.494;7.518;2022-08-03T03:43:07;17.90;99.90
45807;DHT22;31507;51.494;7.518;2022-08-03T03:45:34;17.80;99.90
45807;DHT22;31507;51.494;7.518;2022-08-03T03:48:04;17.80;99.90
45807;DHT22;31507;51.494;7.518;2022-08-03T03:50:34;17.80;99.90
45807;DHT22;31507;51.494;7.518;2022-08-03T03:53:02;17.80;99.90
45807;DHT22;31507;51.494;7.518;2022-08-03T03:55:28;17.80;99.90
45807;DHT22;31507;51.494;7.518;2022-08-03T03:57:54;17.80;99.90
45807;DHT22;31507;51.494;7.518;2022-08-03T04:00:20;17.80;99.90
45807;DHT22;31507;51.494;7.518;2022-08-03T04:02:46;17.80;99.90
45807;DHT22;31507;51.494;7.518;2022-08-03T04:05:12;17.70;99.90
45807;DHT22;31507;51.494;7.518;2022-08-03T04:08:08;17.70;99.90
45807;DHT22;31507;51.494;7.518;2022-08-03T04:11:18;17.70;99.90
45807;DHT22;31507;51.494;7.518;2022-08-03T04:13:54;17.80;99.90
45807;DHT22;31507;51.494;7.518;2022-08-03T04:16:23;17.90;99.90
45807;DHT22;31507;51.494;7.518;2022-08-03T04:19:02;17.90;99.90
45807;DHT22;31507;51.494;7.518;2022-08-03T04:21:29;18.00;99.90
45807;DHT22;31507;51.494;7.518;2022-08-03T04:23:59;18.00;99.90
45807;DHT22;31507;51.494;7.518;2022-08-03T04:26:29;18.10;99.90
45807;DHT22;31507;51.494;7.518;2022-08-03T04:28:56;18.10;99.90
45807;DHT22;31507;51.494;7.518;2022-08-03T04:31:23;18.00;99.90
45807;DHT22;31507;51.494;7.518;2022-08-03T04:33:51;18.00;99.90
45807;DHT22;31507;51.494;7.518;2022-08-03T04:36:21;18.00;99.90
45807;DHT22;31507;51.494;7.518;2022-08-03T04:39:15;18.00;99.90
45807;DHT22;31507;51.494;7.518;2022-08-03T04:41:43;18.00;99.90
45807;DHT22;31507;51.494;7.518;2022-08-03T04:44:10;18.10;99.90
45807;DHT22;31507;51.494;7.518;2022-08-03T04:46:38;18.10;99.90
45807;DHT22;31507;51.494;7.518;2022-08-03T04:49:05;18.20;99.90
45807;DHT22;31507;51.494;7.518;2022-08-03T04:51:31;18.30;99.90
45807;DHT22;31507;51.494;7.518;2022-08-03T04:53:59;18.40;99.90
45807;DHT22;31507;51.494;7.518;2022-08-03T04:56:25;18.50;99.90
45807;DHT22;31507;51.494;7.518;2022-08-03T04:58:50;18.60;99.90
45807;DHT22;31507;51.494;7.518;2022-08-03T05:01:16;18.80;99.90
45807;DHT22;31507;51.494;7.518;2022-08-03T05:03:42;18.80;99.90
45807;DHT22;31507;51.494;7.518;2022-08-03T05:06:08;18.90;99.90
45807;DHT22;31507;51.494;7.518;2022-08-03T05:08:35;19.00;99.90
45807;DHT22;31507;51.494;7.518;2022-08-03T05:11:02;19.10;99.90
45807;DHT22;31507;51.494;7.518;2022-08-03T05:13:28;19.20;99.90
45807;DHT22;31507;51.494;7.518;2022-08-03T05:15:53;19.20;99.90
45807;DHT22;31507;51.494;7.518;2022-08-03T05:18:19;19.30;99.90
45807;DHT22;31507;51.494;7.518;2022-08-03T05:20:45;19.40;99.90
45807;DHT22;31507;51.494;7.518;2022-08-03T05:23:11;19.40;99.90
45807;DHT22;31507;51.494;7.518;2022-08-03T05:25:36;19.50;99.90
45807;DHT22;31507;51.494;7.518;2022-08-03T05:28:02;19.60;99.90
45807;DHT22;31507;51.494;7.518;2022-08-03T05:30:28;19.60;99.90
45807;DHT22;31507;51.494;7.518;2022-08-03T05:32:57;19.70;99.90
45807;DHT22;31507;51.494;7.518;2022-08-03T05:35:24;19.80;99.90
45807;DHT22;31507;51.494;7.518;2022-08-03T05:37:50;19.90;99.90
45807;DHT22;31507;51.494;7.518;2022-08-03T05:40:16;20.00;99.90
45807;DHT22;31507;51.494;7.518;2022-08-03T05:42:42;20.00;99.90
45807;DHT22;31507;51.494;7.518;2022-08-03T05:45:09;20.20;99.90
45807;DHT22;31507;51.494;7.518;2022-08-03T05:47:45;20.30;99.90
45807;DHT22;31507;51.494;7.518;2022-08-03T05:50:12;20.60;99.90
45807;DHT22;31507;51.494;7.518;2022-08-03T05:52:42;21.30;99.90
45807;DHT22;31507;51.494;7.518;2022-08-03T05:55:14;22.40;99.90
45807;DHT22;31507;51.494;7.518;2022-08-03T05:57:44;23.50;99.90
45807;DHT22;31507;51.494;7.518;2022-08-03T06:00:16;24.40;97.30
45807;DHT22;31507;51.494;7.518;2022-08-03T06:02:46;25.10;95.40
45807;DHT22;31507;51.494;7.518;2022-08-03T06:05:11;25.90;94.00
45807;DHT22;31507;51.494;7.518;2022-08-03T06:07:37;26.80;92.40
45807;DHT22;31507;51.494;7.518;2022-08-03T06:10:04;27.30;90.90
45807;DHT22;31507;51.494;7.518;2022-08-03T06:12:30;27.60;90.00
45807;DHT22;31507;51.494;7.518;2022-08-03T06:14:56;27.90;88.20
45807;DHT22;31507;51.494;7.518;2022-08-03T06:17:22;28.30;86.80
45807;DHT22;31507;51.494;7.518;2022-08-03T06:19:50;28.60;86.00
45807;DHT22;31507;51.494;7.518;2022-08-03T06:22:16;28.70;84.20
45807;DHT22;31507;51.494;7.518;2022-08-03T06:24:42;28.70;83.90
45807;DHT22;31507;51.494;7.518;2022-08-03T06:27:09;28.70;83.30
45807;DHT22;31507;51.494;7.518;2022-08-03T06:29:36;29.20;81.80
45807;DHT22;31507;51.494;7.518;2022-08-03T06:32:02;29.70;80.60
45807;DHT22;31507;51.494;7.518;2022-08-03T06:34:28;29.40;80.50
45807;DHT22;31507;51.494;7.518;2022-08-03T06:36:54;29.10;81.40
45807;DHT22;31507;51.494;7.518;2022-08-03T06:39:20;28.80;81.60
45807;DHT22;31507;51.494;7.518;2022-08-03T06:41:46;28.80;82.50
45807;DHT22;31507;51.494;7.518;2022-08-03T06:44:13;28.60;83.10
45807;DHT22;31507;51.494;7.518;2022-08-03T06:46:41;28.90;82.70
45807;DHT22;31507;51.494;7.518;2022-08-03T06:49:07;29.60;81.80
45807;DHT22;31507;51.494;7.518;2022-08-03T06:51:33;30.20;81.20
45807;DHT22;31507;51.494;7.518;2022-08-03T06:53:59;30.50;79.20
45807;DHT22;31507;51.494;7.518;2022-08-03T06:56:24;30.20;78.50
45807;DHT22;31507;51.494;7.518;2022-08-03T06:58:50;30.40;78.20
45807;DHT22;31507;51.494;7.518;2022-08-03T07:01:15;30.80;77.30
45807;DHT22;31507;51.494;7.518;2022-08-03T07:03:41;30.70;76.80
45807;DHT22;31507;51.494;7.518;2022-08-03T07:06:09;30.80;77.50
45807;DHT22;31507;51.494;7.518;2022-08-03T07:08:36;30.90;77.70
45807;DHT22;31507;51.494;7.518;2022-08-03T07:11:02;31.00;77.30
45807;DHT22;31507;51.494;7.518;2022-08-03T07:13:28;31.10;77.10
45807;DHT22;31507;51.494;7.518;2022-08-03T07:15:54;31.00;76.80
45807;DHT22;31507;51.494;7.518;2022-08-03T07:18:22;30.90;77.30
45807;DHT22;31507;51.494;7.518;2022-08-03T07:20:47;30.80;76.90
45807;DHT22;31507;51.494;7.518;2022-08-03T07:23:13;30.60;76.50
45807;DHT22;31507;51.494;7.518;2022-08-03T07:25:39;30.70;76.60
45807;DHT22;31507;51.494;7.518;2022-08-03T07:28:07;30.80;76.10
45807;DHT22;31507;51.494;7.518;2022-08-03T07:30:34;30.80;75.70
45807;DHT22;31507;51.494;7.518;2022-08-03T07:33:00;30.90;75.40
45807;DHT22;31507;51.494;7.518;2022-08-03T07:35:26;30.80;74.80
45807;DHT22;31507;51.494;7.518;2022-08-03T07:37:52;30.70;74.80
45807;DHT22;31507;51.494;7.518;2022-08-03T07:40:18;30.80;75.10
45807;DHT22;31507;51.494;7.518;2022-08-03T07:42:44;30.80;74.50
45807;DHT22;31507;51.494;7.518;2022-08-03T07:45:10;31.10;74.60
45807;DHT22;31507;51.494;7.518;2022-08-03T07:47:35;31.30;74.50
45807;DHT22;31507;51.494;7.518;2022-08-03T07:50:01;31.50;73.50
45807;DHT22;31507;51.494;7.518;2022-08-03T07:52:27;31.50;73.60
45807;DHT22;31507;51.494;7.518;2022-08-03T07:55:11;31.40;73.10
45807;DHT22;31507;51.494;7.518;2022-08-03T07:57:37;31.20;72.70
45807;DHT22;31507;51.494;7.518;2022-08-03T08:00:05;31.10;72.60
45807;DHT22;31507;51.494;7.518;2022-08-03T08:02:31;31.10;72.50
45807;DHT22;31507;51.494;7.518;2022-08-03T08:04:56;31.30;72.40
45807;DHT22;31507;51.494;7.518;2022-08-03T08:07:22;31.00;71.70
45807;DHT22;31507;51.494;7.518;2022-08-03T08:09:48;30.40;71.90
45807;DHT22;31507;51.494;7.518;2022-08-03T08:12:13;30.20;72.90
45807;DHT22;31507;51.494;7.518;2022-08-03T08:14:39;30.00;73.40
45807;DHT22;31507;51.494;7.518;2022-08-03T08:17:06;29.70;73.40
45807;DHT22;31507;51.494;7.518;2022-08-03T08:19:31;29.60;73.80
45807;DHT22;31507;51.494;7.518;2022-08-03T08:21:57;29.40;74.20
45807;DHT22;31507;51.494;7.518;2022-08-03T08:24:23;29.30;73.80
45807;DHT22;31507;51.494;7.518;2022-08-03T08:26:48;29.50;74.70
45807;DHT22;31507;51.494;7.518;2022-08-03T08:29:14;29.90;73.10
45807;DHT22;31507;51.494;7.518;2022-08-03T08:31:39;29.90;72.40
45807;DHT22;31507;51.494;7.518;2022-08-03T08:34:05;29.70;72.40
45807;DHT22;31507;51.494;7.518;2022-08-03T08:36:34;29.80;72.20
45807;DHT22;31507;51.494;7.518;2022-08-03T08:39:00;30.30;71.60
45807;DHT22;31507;51.494;7.518;2022-08-03T08:41:26;30.60;71.30
45807;DHT22;31507;51.494;7.518;2022-08-03T08:43:53;30.90;71.20
45807;DHT22;31507;51.494;7.518;2022-08-03T08:46:19;31.00;70.30
45807;DHT22;31507;51.494;7.518;2022-08-03T08:48:45;30.80;69.50
45807;DHT22;31507;51.494;7.518;2022-08-03T08:51:13;30.50;70.00
45807;DHT22;31507;51.494;7.518;2022-08-03T08:53:43;30.20;70.20
45807;DHT22;31507;51.494;7.518;2022-08-03T08:56:13;30.00;70.00
45807;DHT22;31507;51.494;7.518;2022-08-03T08:58:46;30.20;70.20
45807;DHT22;31507;51.494;7.518;2022-08-03T09:01:13;30.70;69.80
45807;DHT22;31507;51.494;7.518;2022-08-03T09:03:39;30.90;69.40
45807;DHT22;31507;51.494;7.518;2022-08-03T09:06:05;31.20;68.70
45807;DHT22;31507;51.494;7.518;2022-08-03T09:08:31;31.30;68.60
45807;DHT22;31507;51.494;7.518;2022-08-03T09:10:57;31.30;68.50
45807;DHT22;31507;51.494;7.518;2022-08-03T09:13:23;31.40;69.10
45807;DHT22;31507;51.494;7.518;2022-08-03T09:16:11;31.40;69.10
45807;DHT22;31507;51.494;7.518;2022-08-03T09:18:38;31.60;68.60
45807;DHT22;31507;51.494;7.518;2022-08-03T09:23:48;32.00;66.10
45807;DHT22;31507;51.494;7.518;2022-08-03T09:26:25;31.70;69.50
45807;DHT22;31507;51.494;7.518;2022-08-03T09:28:59;31.70;68.80
45807;DHT22;31507;51.494;7.518;2022-08-03T09:31:42;31.70;67.50
45807;DHT22;31507;51.494;7.518;2022-08-03T09:34:10;31.80;66.40
45807;DHT22;31507;51.494;7.518;2022-08-03T09:36:40;31.70;68.50
45807;DHT22;31507;51.494;7.518;2022-08-03T09:39:13;31.90;68.70
45807;DHT22;31507;51.494;7.518;2022-08-03T09:41:42;32.10;68.00
45807;DHT22;31507;51.494;7.518;2022-08-03T09:44:08;32.20;67.70
45807;DHT22;31507;51.494;7.518;2022-08-03T09:46:51;32.10;67.60
45807;DHT22;31507;51.494;7.518;2022-08-03T09:49:17;32.30;65.50
45807;DHT22;31507;51.494;7.518;2022-08-03T09:51:47;32.40;67.20
45807;DHT22;31507;51.494;7.518;2022-08-03T09:54:13;32.40;67.30
45807;DHT22;31507;51.494;7.518;2022-08-03T09:56:50;32.30;66.40
45807;DHT22;31507;51.494;7.518;2022-08-03T09:59:27;32.30;66.90
45807;DHT22;31507;51.494;7.518;2022-08-03T10:01:54;32.20;65.20
45807;DHT22;31507;51.494;7.518;2022-08-03T10:04:20;32.20;66.40
45807;DHT22;31507;51.494;7.518;2022-08-03T10:07:07;32.30;66.10
45807;DHT22;31507;51.494;7.518;2022-08-03T10:09:34;32.50;65.70
45807;DHT22;31507;51.494;7.518;2022-08-03T10:12:08;32.80;65.90
45807;DHT22;31507;51.494;7.518;2022-08-03T10:14:36;32.90;65.10
45807;DHT22;31507;51.494;7.518;2022-08-03T10:17:02;32.80;64.90
45807;DHT22;31507;51.494;7.518;2022-08-03T10:19:28;32.70;64.80
45807;DHT22;31507;51.494;7.518;2022-08-03T10:22:03;32.70;64.60
45807;DHT22;31507;51.494;7.518;2022-08-03T10:24:33;32.50;64.40
45807;DHT22;31507;51.494;7.518;2022-08-03T10:27:05;32.40;63.90
45807;DHT22;31507;51.494;7.518;2022-08-03T10:29:43;32.50;64.60
45807;DHT22;31507;51.494;7.518;2022-08-03T10:32:20;32.60;63.50
45807;DHT22;31507;51.494;7.518;2022-08-03T10:34:50;32.50;63.70
45807;DHT22;31507;51.494;7.518;2022-08-03T10:37:17;32.80;63.00
45807;DHT22;31507;51.494;7.518;2022-08-03T10:39:44;32.90;63.80
45807;DHT22;31507;51.494;7.518;2022-08-03T10:42:25;33.00;63.80
45807;DHT22;31507;51.494;7.518;2022-08-03T10:45:03;33.00;63.10
45807;DHT22;31507;51.494;7.518;2022-08-03T10:47:29;33.40;63.40
45807;DHT22;31507;51.494;7.518;2022-08-03T10:49:56;33.50;62.50
45807;DHT22;31507;51.494;7.518;2022-08-03T10:52:22;33.70;62.20
45807;DHT22;31507;51.494;7.518;2022-08-03T10:54:47;33.70;62.20
45807;DHT22;31507;51.494;7.518;2022-08-03T11:00:08;33.90;64.20
45807;DHT22;31507;51.494;7.518;2022-08-03T11:03:07;33.90;62.20
45807;DHT22;31507;51.494;7.518;2022-08-03T11:05:47;33.80;62.80
45807;DHT22;31507;51.494;7.518;2022-08-03T11:08:30;33.70;63.30
45807;DHT22;31507;51.494;7.518;2022-08-03T11:10:57;33.30;63.30
45807;DHT22;31507;51.494;7.518;2022-08-03T11:13:25;33.10;60.10
45807;DHT22;31507;51.494;7.518;2022-08-03T11:15:54;33.00;63.50
45807;DHT22;31507;51.494;7.518;2022-08-03T11:18:22;33.00;63.10
45807;DHT22;31507;51.494;7.518;2022-08-03T11:20:53;33.30;63.40
45807;DHT22;31507;51.494;7.518;2022-08-03T11:23:39;33.30;63.00
45807;DHT22;31507;51.494;7.518;2022-08-03T11:26:17;33.30;62.30
45807;DHT22;31507;51.494;7.518;2022-08-03T11:28:44;33.50;62.50
45807;DHT22;31507;51.494;7.518;2022-08-03T11:34:18;32.90;60.00
45807;DHT22;31507;51.494;7.518;2022-08-03T11:37:19;32.80;60.70
45807;DHT22;31507;51.494;7.518;2022-08-03T11:39:48;32.70;61.80
45807;DHT22;31507;51.494;7.518;2022-08-03T11:44:50;33.00;60.60
45807;DHT22;31507;51.494;7.518;2022-08-03T11:47:16;33.00;61.80
45807;DHT22;31507;51.494;7.518;2022-08-03T11:49:45;33.30;61.60
45807;DHT22;31507;51.494;7.518;2022-08-03T11:52:11;33.60;60.90
45807;DHT22;31507;51.494;7.518;2022-08-03T11:54:38;33.50;60.80
45807;DHT22;31507;51.494;7.518;2022-08-03T11:57:04;33.40;60.30
45807;DHT22;31507;51.494;7.518;2022-08-03T11:59:33;33.10;61.20
45807;DHT22;31507;51.494;7.518;2022-08-03T12:02:06;32.70;62.00
45807;DHT22;31507;51.494;7.518;2022-08-03T12:04:57;32.90;62.80
45807;DHT22;31507;51.494;7.518;2022-08-03T12:07:26;33.20;63.70
45807;DHT22;31507;51.494;7.518;2022-08-03T12:12:36;33.20;62.60
45807;DHT22;31507;51.494;7.518;2022-08-03T12:15:03;33.10;61.60
45807;DHT22;31507;51.494;7.518;2022-08-03T12:17:36;33.30;62.20
45807;DHT22;31507;51.494;7.518;2022-08-03T12:20:05;33.50;61.60
45807;DHT22;31507;51.494;7.518;2022-08-03T12:22:41;33.60;61.50
45807;DHT22;31507;51.494;7.518;2022-08-03T12:25:08;33.50;61.20
45807;DHT22;31507;51.494;7.518;2022-08-03T12:27:34;33.50;61.00
45807;DHT22;31507;51.494;7.518;2022-08-03T12:30:01;33.30;61.30
45807;DHT22;31507;51.494;7.518;2022-08-03T12:32:28;33.30;61.40
45807;DHT22;31507;51.494;7.518;2022-08-03T12:34:54;33.60;60.70
45807;DHT22;31507;51.494;7.518;2022-08-03T12:37:24;33.70;58.90
45807;DHT22;31507;51.494;7.518;2022-08-03T12:39:51;33.40;60.20
45807;DHT22;31507;51.494;7.518;2022-08-03T12:42:17;33.40;60.30
45807;DHT22;31507;51.494;7.518;2022-08-03T12:44:42;33.40;61.10
45807;DHT22;31507;51.494;7.518;2022-08-03T12:47:10;33.60;60.70
45807;DHT22;31507;51.494;7.518;2022-08-03T12:49:50;33.70;60.30
45807;DHT22;31507;51.494;7.518;2022-08-03T12:52:18;33.50;57.70
45807;DHT22;31507;51.494;7.518;2022-08-03T12:54:57;33.30;59.90
45807;DHT22;31507;51.494;7.518;2022-08-03T12:57:23;33.50;59.20
45807;DHT22;31507;51.494;7.518;2022-08-03T12:59:49;33.70;61.20
45807;DHT22;31507;51.494;7.518;2022-08-03T13:02:16;33.80;61.10
45807;DHT22;31507;51.494;7.518;2022-08-03T13:04:43;34.00;60.90
45807;DHT22;31507;51.494;7.518;2022-08-03T13:07:10;34.10;60.20
45807;DHT22;31507;51.494;7.518;2022-08-03T13:09:53;33.90;59.70
45807;DHT22;31507;51.494;7.518;2022-08-03T13:12:25;34.00;59.40
45807;DHT22;31507;51.494;7.518;2022-08-03T13:14:53;33.90;60.40
45807;DHT22;31507;51.494;7.518;2022-08-03T13:17:19;34.00;59.90
45807;DHT22;31507;51.494;7.518;2022-08-03T13:19:46;34.00;59.30
45807;DHT22;31507;51.494;7.518;2022-08-03T13:24:37;34.00;60.90
45807;DHT22;31507;51.494;7.518;2022-08-03T13:27:03;34.20;61.10
45807;DHT22;31507;51.494;7.518;2022-08-03T13:29:31;34.30;60.20
45807;DHT22;31507;51.494;7.518;2022-08-03T13:31:57;34.00;60.60
45807;DHT22;31507;51.494;7.518;2022-08-03T13:34:22;34.00;60.40
45807;DHT22;31507;51.494;7.518;2022-08-03T13:36:48;33.90;59.90
45807;DHT22;31507;51.494;7.518;2022-08-03T13:39:14;33.50;60.50
45807;DHT22;31507;51.494;7.518;2022-08-03T13:41:40;33.00;60.50
45807;DHT22;31507;51.494;7.518;2022-08-03T13:44:06;33.20;60.90
45807;DHT22;31507;51.494;7.518;2022-08-03T13:46:31;33.40;61.20
45807;DHT22;31507;51.494;7.518;2022-08-03T13:48:57;33.40;61.20
45807;DHT22;31507;51.494;7.518;2022-08-03T13:51:23;33.20;61.40
45807;DHT22;31507;51.494;7.518;2022-08-03T13:53:49;33.10;61.80
45807;DHT22;31507;51.494;7.518;2022-08-03T13:56:15;33.40;60.90
45807;DHT22;31507;51.494;7.518;2022-08-03T13:58:41;33.50;60.90
45807;DHT22;31507;51.494;7.518;2022-08-03T14:01:06;33.80;60.60
45807;DHT22;31507;51.494;7.518;2022-08-03T14:03:32;34.00;60.00
45807;DHT22;31507;51.494;7.518;2022-08-03T14:05:58;34.10;60.00
45807;DHT22;31507;51.494;7.518;2022-08-03T14:08:23;33.90;60.40
45807;DHT22;31507;51.494;7.518;2022-08-03T14:10:49;34.00;60.20
45807;DHT22;31507;51.494;7.518;2022-08-03T14:13:15;33.90;60.70
45807;DHT22;31507;51.494;7.518;2022-08-03T14:15:41;34.00;60.10
45807;DHT22;31507;51.494;7.518;2022-08-03T14:18:07;34.10;60.50
45807;DHT22;31507;51.494;7.518;2022-08-03T14:20:33;34.40;60.60
45807;DHT22;31507;51.494;7.518;2022-08-03T14:22:59;34.50;61.80
45807;DHT22;31507;51.494;7.518;2022-08-03T14:25:24;34.50;61.80
45807;DHT22;31507;51.494;7.518;2022-08-03T14:27:50;34.10;60.70
45807;DHT22;31507;51.494;7.518;2022-08-03T14:30:16;33.30;60.90
45807;DHT22;31507;51.494;7.518;2022-08-03T14:32:41;33.20;61.60
45807;DHT22;31507;51.494;7.518;2022-08-03T14:35:08;33.40;60.80
45807;DHT22;31507;51.494;7.518;2022-08-03T14:37:34;33.70;59.70
45807;DHT22;31507;51.494;7.518;2022-08-03T14:40:00;33.60;59.50
45807;DHT22;31507;51.494;7.518;2022-08-03T14:42:26;33.30;59.60
45807;DHT22;31507;51.494;7.518;2022-08-03T14:44:51;33.20;59.70
45807;DHT22;31507;51.494;7.518;2022-08-03T14:47:17;33.10;61.20
45807;DHT22;31507;51.494;7.518;2022-08-03T14:49:43;33.20;60.80
45807;DHT22;31507;51.494;7.518;2022-08-03T14:52:09;33.40;60.60
45807;DHT22;31507;51.494;7.518;2022-08-03T14:54:34;33.60;60.10
45807;DHT22;31507;51.494;7.518;2022-08-03T14:57:00;33.90;59.70
45807;DHT22;31507;51.494;7.518;2022-08-03T14:59:26;33.70;59.00
45807;DHT22;31507;51.494;7.518;2022-08-03T15:01:52;33.20;59.20
45807;DHT22;31507;51.494;7.518;2022-08-03T15:04:18;33.00;59.70
45807;DHT22;31507;51.494;7.518;2022-08-03T15:06:44;32.90;60.20
45807;DHT22;31507;51.494;7.518;2022-08-03T15:09:09;32.70;59.90
45807;DHT22;31507;51.494;7.518;2022-08-03T15:11:35;32.70;60.30
45807;DHT22;31507;51.494;7.518;2022-08-03T15:14:01;32.60;60.40
45807;DHT22;31507;51.494;7.518;2022-08-03T15:16:27;32.50;61.30
45807;DHT22;31507;51.494;7.518;2022-08-03T15:18:52;32.50;61.80
45807;DHT22;31507;51.494;7.518;2022-08-03T15:21:18;32.50;61.80
45807;DHT22;31507;51.494;7.518;2022-08-03T15:23:44;32.50;61.30
45807;DHT22;31507;51.494;7.518;2022-08-03T15:26:09;32.40;60.60
45807;DHT22;31507;51.494;7.518;2022-08-03T15:28:35;32.30;60.60
45807;DHT22;31507;51.494;7.518;2022-08-03T15:31:01;32.00;60.60
45807;DHT22;31507;51.494;7.518;2022-08-03T15:33:27;31.90;60.90
45807;DHT22;31507;51.494;7.518;2022-08-03T15:35:52;31.80;60.90
45807;DHT22;31507;51.494;7.518;2022-08-03T15:38:19;31.80;61.30
45807;DHT22;31507;51.494;7.518;2022-08-03T15:40:44;32.10;61.20
45807;DHT22;31507;51.494;7.518;2022-08-03T15:43:10;32.60;60.60
45807;DHT22;31507;51.494;7.518;2022-08-03T15:45:36;33.10;59.40
45807;DHT22;31507;51.494;7.518;2022-08-03T15:48:03;33.40;60.10
45807;DHT22;31507;51.494;7.518;2022-08-03T15:50:29;33.50;59.10
45807;DHT22;31507;51.494;7.518;2022-08-03T15:52:55;33.70;60.20
45807;DHT22;31507;51.494;7.518;2022-08-03T15:55:21;34.00;60.90
45807;DHT22;31507;51.494;7.518;2022-08-03T15:57:46;34.00;59.90
45807;DHT22;31507;51.494;7.518;2022-08-03T16:00:12;33.70;59.50
45807;DHT22;31507;51.494;7.518;2022-08-03T16:02:38;33.30;59.60